sensor_id;sensor_type;location;lat;lon;timestamp;P1;durP1;ratioP1;P2;durP2;ratioP2
21103;SDS011;10710;53.398;-1.514;2023-04-09T00:02:14;5.85;;;3.65;;
21103;SDS011;10710;53.398;-1.514;2023-04-09T00:05:00;7.47;;;3.30;;
21103;SDS011;10710;53.398;-1.514;2023-04-09T00:07:45;8.80;;;3.40;;
21103;SDS011;10710;53.398;-1.514;2023-04-09T00:10:32;7.10;;;3.30;;
21103;SDS011;10710;53.398;-1.514;2023-04-09T00:13:16;14.13;;;5.33;;
21103;SDS011;10710;53.398;-1.514;2023-04-09T00:16:01;47.03;;;21.83;;
21103;SDS011;10710;53.398;-1.514;2023-04-09T00:18:45;26.90;;;10.70;;
21103;SDS011;10710;53.398;-1.514;2023-04-09T00:21:29;5.50;;;3.40;;
21103;SDS011;10710;53.398;-1.514;2023-04-09T00:24:18;6.75;;;3.13;;
21103;SDS011;10710;53.398;-1.514;2023-04-09T00:27:02;9.43;;;3.55;;
21103;SDS011;10710;53.398;-1.514;2023-04-09T00:29:46;8.00;;;3.10;;
21103;SDS011;10710;53.398;-1.514;2023-04-09T00:32:31;6.23;;;3.03;;
21103;SDS011;10710;53.398;-1.514;2023-04-09T00:35:15;5.80;;;2.92;;
21103;SDS011;10710;53.398;-1.514;2023-04-09T00:38:00;6.72;;;3.55;;
21103;SDS011;10710;53.398;-1.514;2023-04-09T00:40:49;7.80;;;4.65;;
21103;SDS011;10710;53.398;-1.514;2023-04-09T00:43:34;21.50;;;10.50;;
21103;SDS011;10710;53.398;-1.514;2023-04-09T00:46:18;6.25;;;3.63;;
21103;SDS011;10710;53.398;-1.514;2023-04-09T00:49:03;7.68;;;2.97;;
21103;SDS011;10710;53.398;-1.514;2023-04-09T00:51:48;7.17;;;3.57;;
21103;SDS011;10710;53.398;-1.514;2023-04-09T00:54:33;7.72;;;4.43;;
21103;SDS011;10710;53.398;-1.514;2023-04-09T00:57:17;6.03;;;3.25;;
21103;SDS011;10710;53.398;-1.514;2023-04-09T01:00:02;5.95;;;2.75;;
21103;SDS011;10710;53.398;-1.514;2023-04-09T01:02:47;12.18;;;4.72;;
21103;SDS011;10710;53.398;-1.514;2023-04-09T01:05:43;5.13;;;2.67;;
21103;SDS011;10710;53.398;-1.514;2023-04-09T01:14:31;6.00;;;3.03;;
21103;SDS011;10710;53.398;-1.514;2023-04-09T01:17:40;5.65;;;2.55;;
21103;SDS011;10710;53.398;-1.514;2023-04-09T01:20:32;5.78;;;2.90;;
21103;SDS011;10710;53.398;-1.514;2023-04-09T01:26:51;6.82;;;3.22;;
21103;SDS011;10710;53.398;-1.514;2023-04-09T01:29:50;6.88;;;2.67;;
21103;SDS011;10710;53.398;-1.514;2023-04-09T01:32:36;7.97;;;2.80;;
21103;SDS011;10710;53.398;-1.514;2023-04-09T01:35:23;7.82;;;3.40;;
21103;SDS011;10710;53.398;-1.514;2023-04-09T01:38:09;8.50;;;2.85;;
21103;SDS011;10710;53.398;-1.514;2023-04-09T01:40:55;7.38;;;2.92;;
21103;SDS011;10710;53.398;-1.514;2023-04-09T01:43:40;7.78;;;2.80;;
21103;SDS011;10710;53.398;-1.514;2023-04-09T01:46:25;10.10;;;3.58;;
21103;SDS011;10710;53.398;-1.514;2023-04-09T01:49:11;8.10;;;4.00;;
21103;SDS011;10710;53.398;-1.514;2023-04-09T01:51:55;7.32;;;3.53;;
21103;SDS011;10710;53.398;-1.514;2023-04-09T01:54:41;6.43;;;3.35;;
21103;SDS011;10710;53.398;-1.514;2023-04-09T01:57:25;8.82;;;3.60;;
21103;SDS011;10710;53.398;-1.514;2023-04-09T02:00:10;9.80;;;3.95;;
21103;SDS011;10710;53.398;-1.514;2023-04-09T02:03:01;15.10;;;4.85;;
21103;SDS011;10710;53.398;-1.514;2023-04-09T02:05:59;6.13;;;3.00;;
21103;SDS011;10710;53.398;-1.514;2023-04-09T02:08:57;6.65;;;2.53;;
21103;SDS011;10710;53.398;-1.514;2023-04-09T02:11:44;4.28;;;2.78;;
21103;SDS011;10710;53.398;-1.514;2023-04-09T02:14:31;5.03;;;2.90;;
21103;SDS011;10710;53.398;-1.514;2023-04-09T02:17:17;5.35;;;3.13;;
21103;SDS011;10710;53.398;-1.514;2023-04-09T02:20:02;6.63;;;3.28;;
21103;SDS011;10710;53.398;-1.514;2023-04-09T02:22:46;6.30;;;2.73;;
21103;SDS011;10710;53.398;-1.514;2023-04-09T02:25:31;8.43;;;2.90;;
21103;SDS011;10710;53.398;-1.514;2023-04-09T02:28:16;6.25;;;3.10;;
21103;SDS011;10710;53.398;-1.514;2023-04-09T02:31:00;6.90;;;3.05;;
21103;SDS011;10710;53.398;-1.514;2023-04-09T02:33:44;8.10;;;4.03;;
21103;SDS011;10710;53.398;-1.514;2023-04-09T02:36:28;7.80;;;3.97;;
21103;SDS011;10710;53.398;-1.514;2023-04-09T02:39:13;8.48;;;3.58;;
21103;SDS011;10710;53.398;-1.514;2023-04-09T02:41:58;5.07;;;2.90;;
21103;SDS011;10710;53.398;-1.514;2023-04-09T02:44:42;6.82;;;3.50;;
21103;SDS011;10710;53.398;-1.514;2023-04-09T02:47:27;7.22;;;3.00;;
21103;SDS011;10710;53.398;-1.514;2023-04-09T02:50:13;4.80;;;2.60;;
21103;SDS011;10710;53.398;-1.514;2023-04-09T02:52:57;8.13;;;3.90;;
21103;SDS011;10710;53.398;-1.514;2023-04-09T02:55:41;7.60;;;2.90;;
21103;SDS011;10710;53.398;-1.514;2023-04-09T02:58:25;7.13;;;3.15;;
21103;SDS011;10710;53.398;-1.514;2023-04-09T03:01:09;5.47;;;3.17;;
21103;SDS011;10710;53.398;-1.514;2023-04-09T03:03:54;6.45;;;3.05;;
21103;SDS011;10710;53.398;-1.514;2023-04-09T03:06:38;6.00;;;3.38;;
21103;SDS011;10710;53.398;-1.514;2023-04-09T03:09:22;5.72;;;3.08;;
21103;SDS011;10710;53.398;-1.514;2023-04-09T03:12:06;5.43;;;2.90;;
21103;SDS011;10710;53.398;-1.514;2023-04-09T03:14:50;6.97;;;3.03;;
21103;SDS011;10710;53.398;-1.514;2023-04-09T03:17:34;6.93;;;2.78;;
21103;SDS011;10710;53.398;-1.514;2023-04-09T03:20:19;7.63;;;3.17;;
21103;SDS011;10710;53.398;-1.514;2023-04-09T03:23:03;8.45;;;3.45;;
21103;SDS011;10710;53.398;-1.514;2023-04-09T03:25:47;6.23;;;3.17;;
21103;SDS011;10710;53.398;-1.514;2023-04-09T03:28:31;8.18;;;3.22;;
21103;SDS011;10710;53.398;-1.514;2023-04-09T03:31:16;7.65;;;2.90;;
21103;SDS011;10710;53.398;-1.514;2023-04-09T03:34:00;7.30;;;3.22;;
21103;SDS011;10710;53.398;-1.514;2023-04-09T03:36:44;8.70;;;3.40;;
21103;SDS011;10710;53.398;-1.514;2023-04-09T03:39:28;8.15;;;3.38;;
21103;SDS011;10710;53.398;-1.514;2023-04-09T03:42:13;7.70;;;3.40;;
21103;SDS011;10710;53.398;-1.514;2023-04-09T03:44:58;8.23;;;3.20;;
21103;SDS011;10710;53.398;-1.514;2023-04-09T03:47:42;6.72;;;3.75;;
21103;SDS011;10710;53.398;-1.514;2023-04-09T03:50:26;5.83;;;3.27;;
21103;SDS011;10710;53.398;-1.514;2023-04-09T03:53:10;6.35;;;3.40;;
21103;SDS011;10710;53.398;-1.514;2023-04-09T03:55:54;7.47;;;3.47;;
21103;SDS011;10710;53.398;-1.514;2023-04-09T03:58:39;9.32;;;3.55;;
21103;SDS011;10710;53.398;-1.514;2023-04-09T04:01:23;16.08;;;4.00;;
21103;SDS011;10710;53.398;-1.514;2023-04-09T04:04:07;8.47;;;3.50;;
21103;SDS011;10710;53.398;-1.514;2023-04-09T04:06:51;5.63;;;3.10;;
21103;SDS011;10710;53.398;-1.514;2023-04-09T04:09:35;6.17;;;3.53;;
21103;SDS011;10710;53.398;-1.514;2023-04-09T04:12:20;7.35;;;3.38;;
21103;SDS011;10710;53.398;-1.514;2023-04-09T04:15:04;10.30;;;3.97;;
21103;SDS011;10710;53.398;-1.514;2023-04-09T04:17:48;8.00;;;4.05;;
21103;SDS011;10710;53.398;-1.514;2023-04-09T04:20:33;7.57;;;3.92;;
21103;SDS011;10710;53.398;-1.514;2023-04-09T04:23:18;6.32;;;3.42;;
21103;SDS011;10710;53.398;-1.514;2023-04-09T04:26:05;9.43;;;4.13;;
21103;SDS011;10710;53.398;-1.514;2023-04-09T04:28:53;7.53;;;4.00;;
21103;SDS011;10710;53.398;-1.514;2023-04-09T04:31:39;10.32;;;4.50;;
21103;SDS011;10710;53.398;-1.514;2023-04-09T04:34:23;9.65;;;4.63;;
21103;SDS011;10710;53.398;-1.514;2023-04-09T04:37:07;10.32;;;4.35;;
21103;SDS011;10710;53.398;-1.514;2023-04-09T04:39:51;8.52;;;4.80;;
21103;SDS011;10710;53.398;-1.514;2023-04-09T04:42:35;9.48;;;4.78;;
21103;SDS011;10710;53.398;-1.514;2023-04-09T04:45:19;9.35;;;3.97;;
21103;SDS011;10710;53.398;-1.514;2023-04-09T04:48:03;8.20;;;3.95;;
21103;SDS011;10710;53.398;-1.514;2023-04-09T04:50:53;9.13;;;3.92;;
21103;SDS011;10710;53.398;-1.514;2023-04-09T04:53:41;10.00;;;4.30;;
21103;SDS011;10710;53.398;-1.514;2023-04-09T04:56:25;10.45;;;4.13;;
21103;SDS011;10710;53.398;-1.514;2023-04-09T04:59:09;7.05;;;3.60;;
21103;SDS011;10710;53.398;-1.514;2023-04-09T05:01:53;8.85;;;4.50;;
21103;SDS011;10710;53.398;-1.514;2023-04-09T05:04:38;9.15;;;4.13;;
21103;SDS011;10710;53.398;-1.514;2023-04-09T05:07:22;11.30;;;4.77;;
21103;SDS011;10710;53.398;-1.514;2023-04-09T05:10:06;8.77;;;4.43;;
21103;SDS011;10710;53.398;-1.514;2023-04-09T05:12:51;12.32;;;4.85;;
21103;SDS011;10710;53.398;-1.514;2023-04-09T05:15:38;15.68;;;6.78;;
21103;SDS011;10710;53.398;-1.514;2023-04-09T05:18:23;12.55;;;5.60;;
21103;SDS011;10710;53.398;-1.514;2023-04-09T05:21:07;15.15;;;6.30;;
21103;SDS011;10710;53.398;-1.514;2023-04-09T05:23:52;15.33;;;5.80;;
21103;SDS011;10710;53.398;-1.514;2023-04-09T05:26:37;14.90;;;6.32;;
21103;SDS011;10710;53.398;-1.514;2023-04-09T05:29:21;10.63;;;4.82;;
21103;SDS011;10710;53.398;-1.514;2023-04-09T05:32:05;9.23;;;4.00;;
21103;SDS011;10710;53.398;-1.514;2023-04-09T05:34:51;12.45;;;4.65;;
21103;SDS011;10710;53.398;-1.514;2023-04-09T05:37:35;13.32;;;5.43;;
21103;SDS011;10710;53.398;-1.514;2023-04-09T05:40:19;11.48;;;5.60;;
21103;SDS011;10710;53.398;-1.514;2023-04-09T05:43:03;12.63;;;5.07;;
21103;SDS011;10710;53.398;-1.514;2023-04-09T05:45:48;10.55;;;4.72;;
21103;SDS011;10710;53.398;-1.514;2023-04-09T05:48:33;12.30;;;5.60;;
21103;SDS011;10710;53.398;-1.514;2023-04-09T05:51:19;11.15;;;5.15;;
21103;SDS011;10710;53.398;-1.514;2023-04-09T05:54:03;16.17;;;6.63;;
21103;SDS011;10710;53.398;-1.514;2023-04-09T05:56:48;16.38;;;6.22;;
21103;SDS011;10710;53.398;-1.514;2023-04-09T05:59:32;21.15;;;8.30;;
21103;SDS011;10710;53.398;-1.514;2023-04-09T06:02:16;17.63;;;7.15;;
21103;SDS011;10710;53.398;-1.514;2023-04-09T06:05:00;13.95;;;6.40;;
21103;SDS011;10710;53.398;-1.514;2023-04-09T06:07:45;14.95;;;6.80;;
21103;SDS011;10710;53.398;-1.514;2023-04-09T06:10:33;17.33;;;7.32;;
21103;SDS011;10710;53.398;-1.514;2023-04-09T06:13:17;16.90;;;7.07;;
21103;SDS011;10710;53.398;-1.514;2023-04-09T06:16:05;22.13;;;8.95;;
21103;SDS011;10710;53.398;-1.514;2023-04-09T06:18:51;23.77;;;9.23;;
21103;SDS011;10710;53.398;-1.514;2023-04-09T06:21:37;20.08;;;9.75;;
21103;SDS011;10710;53.398;-1.514;2023-04-09T06:24:22;20.55;;;9.15;;
21103;SDS011;10710;53.398;-1.514;2023-04-09T06:27:06;21.75;;;10.38;;
21103;SDS011;10710;53.398;-1.514;2023-04-09T06:29:50;23.30;;;9.40;;
21103;SDS011;10710;53.398;-1.514;2023-04-09T06:32:34;19.17;;;9.30;;
21103;SDS011;10710;53.398;-1.514;2023-04-09T06:35:18;21.80;;;9.47;;
21103;SDS011;10710;53.398;-1.514;2023-04-09T06:38:03;22.63;;;9.20;;
21103;SDS011;10710;53.398;-1.514;2023-04-09T06:40:48;20.15;;;8.60;;
21103;SDS011;10710;53.398;-1.514;2023-04-09T06:43:32;21.38;;;9.55;;
21103;SDS011;10710;53.398;-1.514;2023-04-09T06:46:16;21.90;;;9.65;;
21103;SDS011;10710;53.398;-1.514;2023-04-09T06:49:03;20.55;;;9.95;;
21103;SDS011;10710;53.398;-1.514;2023-04-09T06:51:47;20.38;;;9.48;;
21103;SDS011;10710;53.398;-1.514;2023-04-09T06:54:31;21.90;;;9.50;;
21103;SDS011;10710;53.398;-1.514;2023-04-09T06:57:15;24.00;;;10.85;;
21103;SDS011;10710;53.398;-1.514;2023-04-09T06:59:59;24.38;;;10.10;;
21103;SDS011;10710;53.398;-1.514;2023-04-09T07:02:43;24.25;;;9.98;;
21103;SDS011;10710;53.398;-1.514;2023-04-09T07:05:27;24.97;;;10.33;;
21103;SDS011;10710;53.398;-1.514;2023-04-09T07:08:11;28.83;;;11.77;;
21103;SDS011;10710;53.398;-1.514;2023-04-09T07:10:55;28.35;;;10.63;;
21103;SDS011;10710;53.398;-1.514;2023-04-09T07:13:39;29.50;;;10.35;;
21103;SDS011;10710;53.398;-1.514;2023-04-09T07:16:23;24.08;;;10.32;;
21103;SDS011;10710;53.398;-1.514;2023-04-09T07:19:08;22.92;;;9.93;;
21103;SDS011;10710;53.398;-1.514;2023-04-09T07:21:53;25.77;;;10.48;;
21103;SDS011;10710;53.398;-1.514;2023-04-09T07:24:37;27.77;;;11.02;;
21103;SDS011;10710;53.398;-1.514;2023-04-09T07:27:22;27.75;;;10.15;;
21103;SDS011;10710;53.398;-1.514;2023-04-09T07:30:07;22.55;;;9.80;;
21103;SDS011;10710;53.398;-1.514;2023-04-09T07:32:53;24.10;;;10.18;;
21103;SDS011;10710;53.398;-1.514;2023-04-09T07:35:38;23.85;;;9.40;;
21103;SDS011;10710;53.398;-1.514;2023-04-09T07:38:22;19.10;;;9.30;;
21103;SDS011;10710;53.398;-1.514;2023-04-09T07:41:06;20.90;;;9.43;;
21103;SDS011;10710;53.398;-1.514;2023-04-09T07:43:53;25.27;;;10.87;;
21103;SDS011;10710;53.398;-1.514;2023-04-09T07:46:38;24.48;;;9.85;;
21103;SDS011;10710;53.398;-1.514;2023-04-09T07:49:22;22.58;;;9.48;;
21103;SDS011;10710;53.398;-1.514;2023-04-09T07:52:07;25.83;;;10.00;;
21103;SDS011;10710;53.398;-1.514;2023-04-09T07:54:51;22.75;;;9.75;;
21103;SDS011;10710;53.398;-1.514;2023-04-09T07:57:35;26.27;;;10.00;;
21103;SDS011;10710;53.398;-1.514;2023-04-09T08:00:20;25.63;;;11.77;;
21103;SDS011;10710;53.398;-1.514;2023-04-09T08:03:04;25.45;;;10.50;;
21103;SDS011;10710;53.398;-1.514;2023-04-09T08:05:48;25.20;;;10.43;;
21103;SDS011;10710;53.398;-1.514;2023-04-09T08:08:32;23.75;;;10.27;;
21103;SDS011;10710;53.398;-1.514;2023-04-09T08:11:17;23.85;;;9.02;;
21103;SDS011;10710;53.398;-1.514;2023-04-09T08:14:07;23.73;;;10.13;;
21103;SDS011;10710;53.398;-1.514;2023-04-09T08:16:55;24.38;;;10.20;;
21103;SDS011;10710;53.398;-1.514;2023-04-09T08:19:39;21.83;;;10.55;;
21103;SDS011;10710;53.398;-1.514;2023-04-09T08:22:23;26.63;;;10.43;;
21103;SDS011;10710;53.398;-1.514;2023-04-09T08:25:08;24.65;;;10.55;;
21103;SDS011;10710;53.398;-1.514;2023-04-09T08:27:53;21.90;;;9.77;;
21103;SDS011;10710;53.398;-1.514;2023-04-09T08:30:37;24.75;;;10.98;;
21103;SDS011;10710;53.398;-1.514;2023-04-09T08:33:21;22.95;;;11.27;;
21103;SDS011;10710;53.398;-1.514;2023-04-09T08:36:07;28.63;;;10.82;;
21103;SDS011;10710;53.398;-1.514;2023-04-09T08:38:51;25.97;;;11.20;;
21103;SDS011;10710;53.398;-1.514;2023-04-09T08:41:40;29.92;;;10.77;;
21103;SDS011;10710;53.398;-1.514;2023-04-09T08:44:28;31.00;;;12.45;;
21103;SDS011;10710;53.398;-1.514;2023-04-09T08:47:13;28.00;;;12.90;;
21103;SDS011;10710;53.398;-1.514;2023-04-09T08:49:58;25.13;;;10.48;;
21103;SDS011;10710;53.398;-1.514;2023-04-09T08:52:44;27.13;;;10.67;;
21103;SDS011;10710;53.398;-1.514;2023-04-09T08:55:31;31.60;;;11.38;;
21103;SDS011;10710;53.398;-1.514;2023-04-09T08:58:19;31.27;;;13.57;;
21103;SDS011;10710;53.398;-1.514;2023-04-09T09:01:04;25.07;;;11.00;;
21103;SDS011;10710;53.398;-1.514;2023-04-09T09:04:10;31.55;;;11.98;;
21103;SDS011;10710;53.398;-1.514;2023-04-09T09:06:54;34.27;;;14.37;;
21103;SDS011;10710;53.398;-1.514;2023-04-09T09:09:53;33.92;;;13.00;;
21103;SDS011;10710;53.398;-1.514;2023-04-09T09:12:40;26.25;;;10.95;;
21103;SDS011;10710;53.398;-1.514;2023-04-09T09:15:25;32.08;;;11.57;;
21103;SDS011;10710;53.398;-1.514;2023-04-09T09:18:11;25.50;;;11.27;;
21103;SDS011;10710;53.398;-1.514;2023-04-09T09:21:08;28.13;;;10.65;;
21103;SDS011;10710;53.398;-1.514;2023-04-09T09:23:56;32.55;;;16.67;;
21103;SDS011;10710;53.398;-1.514;2023-04-09T09:26:41;29.50;;;12.57;;
21103;SDS011;10710;53.398;-1.514;2023-04-09T09:29:26;27.27;;;11.18;;
21103;SDS011;10710;53.398;-1.514;2023-04-09T09:32:12;33.25;;;11.75;;
21103;SDS011;10710;53.398;-1.514;2023-04-09T09:35:05;25.30;;;11.23;;
21103;SDS011;10710;53.398;-1.514;2023-04-09T09:38:00;28.77;;;11.00;;
21103;SDS011;10710;53.398;-1.514;2023-04-09T09:40:47;31.13;;;13.13;;
21103;SDS011;10710;53.398;-1.514;2023-04-09T09:43:39;26.08;;;11.32;;
21103;SDS011;10710;53.398;-1.514;2023-04-09T09:46:27;30.23;;;11.97;;
21103;SDS011;10710;53.398;-1.514;2023-04-09T09:49:17;31.50;;;11.67;;
21103;SDS011;10710;53.398;-1.514;2023-04-09T09:52:01;35.25;;;12.20;;
21103;SDS011;10710;53.398;-1.514;2023-04-09T09:54:47;26.55;;;11.07;;
21103;SDS011;10710;53.398;-1.514;2023-04-09T09:57:38;26.25;;;11.07;;
21103;SDS011;10710;53.398;-1.514;2023-04-09T10:00:27;23.65;;;10.32;;
21103;SDS011;10710;53.398;-1.514;2023-04-09T10:03:14;24.98;;;9.73;;
21103;SDS011;10710;53.398;-1.514;2023-04-09T10:06:04;25.80;;;10.25;;
21103;SDS011;10710;53.398;-1.514;2023-04-09T10:08:50;25.75;;;10.77;;
21103;SDS011;10710;53.398;-1.514;2023-04-09T10:11:35;25.70;;;10.45;;
21103;SDS011;10710;53.398;-1.514;2023-04-09T10:14:20;25.37;;;10.10;;
21103;SDS011;10710;53.398;-1.514;2023-04-09T10:17:05;22.63;;;9.85;;
21103;SDS011;10710;53.398;-1.514;2023-04-09T10:19:55;24.92;;;10.23;;
21103;SDS011;10710;53.398;-1.514;2023-04-09T10:22:50;20.92;;;9.85;;
21103;SDS011;10710;53.398;-1.514;2023-04-09T10:25:36;19.77;;;8.95;;
21103;SDS011;10710;53.398;-1.514;2023-04-09T10:28:20;19.50;;;9.00;;
21103;SDS011;10710;53.398;-1.514;2023-04-09T10:31:06;23.65;;;8.65;;
21103;SDS011;10710;53.398;-1.514;2023-04-09T10:33:51;18.92;;;8.10;;
21103;SDS011;10710;53.398;-1.514;2023-04-09T10:36:36;17.40;;;8.43;;
21103;SDS011;10710;53.398;-1.514;2023-04-09T10:39:20;20.45;;;8.05;;
21103;SDS011;10710;53.398;-1.514;2023-04-09T10:42:51;21.95;;;8.57;;
21103;SDS011;10710;53.398;-1.514;2023-04-09T10:45:18;17.98;;;7.30;;
21103;SDS011;10710;53.398;-1.514;2023-04-09T10:48:03;19.75;;;9.70;;
21103;SDS011;10710;53.398;-1.514;2023-04-09T10:50:49;20.83;;;8.80;;
21103;SDS011;10710;53.398;-1.514;2023-04-09T10:53:34;17.70;;;7.82;;
21103;SDS011;10710;53.398;-1.514;2023-04-09T10:56:19;16.58;;;7.82;;
21103;SDS011;10710;53.398;-1.514;2023-04-09T10:59:03;33.03;;;15.15;;
21103;SDS011;10710;53.398;-1.514;2023-04-09T11:01:53;17.90;;;8.57;;
21103;SDS011;10710;53.398;-1.514;2023-04-09T11:04:52;16.35;;;7.85;;
21103;SDS011;10710;53.398;-1.514;2023-04-09T11:08:11;21.42;;;8.40;;
21103;SDS011;10710;53.398;-1.514;2023-04-09T11:10:56;20.02;;;7.95;;
21103;SDS011;10710;53.398;-1.514;2023-04-09T11:13:43;20.23;;;8.23;;
21103;SDS011;10710;53.398;-1.514;2023-04-09T11:16:28;31.30;;;12.77;;
21103;SDS011;10710;53.398;-1.514;2023-04-09T11:19:13;22.17;;;11.00;;
21103;SDS011;10710;53.398;-1.514;2023-04-09T11:21:58;22.30;;;8.93;;
21103;SDS011;10710;53.398;-1.514;2023-04-09T11:24:42;16.23;;;8.82;;
21103;SDS011;10710;53.398;-1.514;2023-04-09T11:27:29;17.50;;;7.90;;
21103;SDS011;10710;53.398;-1.514;2023-04-09T11:30:13;14.85;;;7.43;;
21103;SDS011;10710;53.398;-1.514;2023-04-09T11:32:57;13.40;;;7.15;;
21103;SDS011;10710;53.398;-1.514;2023-04-09T11:35:42;20.00;;;7.68;;
21103;SDS011;10710;53.398;-1.514;2023-04-09T11:38:26;17.30;;;8.02;;
21103;SDS011;10710;53.398;-1.514;2023-04-09T11:41:14;18.65;;;8.63;;
21103;SDS011;10710;53.398;-1.514;2023-04-09T11:44:00;17.23;;;8.40;;
21103;SDS011;10710;53.398;-1.514;2023-04-09T11:46:46;16.88;;;7.10;;
21103;SDS011;10710;53.398;-1.514;2023-04-09T11:49:31;15.57;;;7.80;;
21103;SDS011;10710;53.398;-1.514;2023-04-09T11:52:16;14.40;;;6.63;;
21103;SDS011;10710;53.398;-1.514;2023-04-09T11:55:02;14.23;;;6.97;;
21103;SDS011;10710;53.398;-1.514;2023-04-09T11:57:47;13.98;;;7.05;;
21103;SDS011;10710;53.398;-1.514;2023-04-09T12:00:38;16.42;;;7.28;;
21103;SDS011;10710;53.398;-1.514;2023-04-09T12:03:30;14.65;;;7.13;;
21103;SDS011;10710;53.398;-1.514;2023-04-09T12:06:19;15.93;;;7.03;;
21103;SDS011;10710;53.398;-1.514;2023-04-09T12:09:05;13.00;;;6.80;;
21103;SDS011;10710;53.398;-1.514;2023-04-09T12:11:51;11.63;;;6.65;;
21103;SDS011;10710;53.398;-1.514;2023-04-09T12:14:36;13.98;;;6.93;;
21103;SDS011;10710;53.398;-1.514;2023-04-09T12:17:20;15.83;;;7.53;;
21103;SDS011;10710;53.398;-1.514;2023-04-09T12:20:04;12.77;;;6.68;;
21103;SDS011;10710;53.398;-1.514;2023-04-09T12:22:51;15.15;;;6.72;;
21103;SDS011;10710;53.398;-1.514;2023-04-09T12:25:36;13.25;;;6.50;;
21103;SDS011;10710;53.398;-1.514;2023-04-09T12:28:22;14.85;;;6.82;;
21103;SDS011;10710;53.398;-1.514;2023-04-09T12:31:09;13.23;;;6.75;;
21103;SDS011;10710;53.398;-1.514;2023-04-09T12:33:54;15.32;;;7.15;;
21103;SDS011;10710;53.398;-1.514;2023-04-09T12:36:39;14.50;;;6.83;;
21103;SDS011;10710;53.398;-1.514;2023-04-09T12:39:26;15.40;;;6.75;;
21103;SDS011;10710;53.398;-1.514;2023-04-09T12:42:10;16.73;;;6.68;;
21103;SDS011;10710;53.398;-1.514;2023-04-09T12:44:55;14.85;;;7.45;;
21103;SDS011;10710;53.398;-1.514;2023-04-09T12:47:39;13.97;;;6.53;;
21103;SDS011;10710;53.398;-1.514;2023-04-09T12:50:24;15.25;;;8.75;;
21103;SDS011;10710;53.398;-1.514;2023-04-09T12:53:08;14.48;;;6.95;;
21103;SDS011;10710;53.398;-1.514;2023-04-09T12:55:53;13.77;;;6.32;;
21103;SDS011;10710;53.398;-1.514;2023-04-09T12:58:38;12.47;;;6.30;;
21103;SDS011;10710;53.398;-1.514;2023-04-09T13:01:22;15.85;;;7.70;;
21103;SDS011;10710;53.398;-1.514;2023-04-09T13:04:06;15.88;;;8.80;;
21103;SDS011;10710;53.398;-1.514;2023-04-09T13:06:50;13.02;;;6.47;;
21103;SDS011;10710;53.398;-1.514;2023-04-09T13:09:35;14.13;;;6.53;;
21103;SDS011;10710;53.398;-1.514;2023-04-09T13:12:19;12.00;;;6.70;;
21103;SDS011;10710;53.398;-1.514;2023-04-09T13:15:04;14.73;;;7.20;;
21103;SDS011;10710;53.398;-1.514;2023-04-09T13:17:49;12.60;;;6.82;;
21103;SDS011;10710;53.398;-1.514;2023-04-09T13:20:33;17.40;;;7.07;;
21103;SDS011;10710;53.398;-1.514;2023-04-09T13:23:18;12.32;;;6.38;;
21103;SDS011;10710;53.398;-1.514;2023-04-09T13:26:02;13.10;;;6.63;;
21103;SDS011;10710;53.398;-1.514;2023-04-09T13:28:46;16.02;;;6.82;;
21103;SDS011;10710;53.398;-1.514;2023-04-09T13:31:30;13.55;;;7.32;;
21103;SDS011;10710;53.398;-1.514;2023-04-09T13:34:16;13.52;;;7.30;;
21103;SDS011;10710;53.398;-1.514;2023-04-09T13:37:01;11.85;;;6.15;;
21103;SDS011;10710;53.398;-1.514;2023-04-09T13:39:46;15.00;;;7.35;;
21103;SDS011;10710;53.398;-1.514;2023-04-09T13:42:30;14.17;;;7.50;;
21103;SDS011;10710;53.398;-1.514;2023-04-09T13:45:14;13.63;;;7.07;;
21103;SDS011;10710;53.398;-1.514;2023-04-09T13:47:59;14.15;;;6.57;;
21103;SDS011;10710;53.398;-1.514;2023-04-09T13:50:43;11.23;;;6.45;;
21103;SDS011;10710;53.398;-1.514;2023-04-09T13:53:28;14.02;;;7.35;;
21103;SDS011;10710;53.398;-1.514;2023-04-09T13:56:13;15.00;;;7.88;;
21103;SDS011;10710;53.398;-1.514;2023-04-09T13:58:57;18.83;;;7.63;;
21103;SDS011;10710;53.398;-1.514;2023-04-09T14:01:42;15.00;;;6.93;;
21103;SDS011;10710;53.398;-1.514;2023-04-09T14:04:26;15.10;;;7.10;;
21103;SDS011;10710;53.398;-1.514;2023-04-09T14:07:10;11.32;;;6.43;;
21103;SDS011;10710;53.398;-1.514;2023-04-09T14:09:54;15.57;;;7.50;;
21103;SDS011;10710;53.398;-1.514;2023-04-09T14:12:38;15.55;;;7.50;;
21103;SDS011;10710;53.398;-1.514;2023-04-09T14:15:23;14.73;;;6.72;;
21103;SDS011;10710;53.398;-1.514;2023-04-09T14:18:07;16.25;;;7.82;;
21103;SDS011;10710;53.398;-1.514;2023-04-09T14:20:51;14.43;;;7.70;;
21103;SDS011;10710;53.398;-1.514;2023-04-09T14:23:36;14.90;;;7.55;;
21103;SDS011;10710;53.398;-1.514;2023-04-09T14:26:21;13.57;;;6.97;;
21103;SDS011;10710;53.398;-1.514;2023-04-09T14:29:06;15.13;;;7.68;;
21103;SDS011;10710;53.398;-1.514;2023-04-09T14:31:50;16.75;;;7.47;;
21103;SDS011;10710;53.398;-1.514;2023-04-09T14:34:35;13.77;;;7.25;;
21103;SDS011;10710;53.398;-1.514;2023-04-09T14:37:19;15.13;;;7.57;;
21103;SDS011;10710;53.398;-1.514;2023-04-09T14:40:04;13.98;;;7.43;;
21103;SDS011;10710;53.398;-1.514;2023-04-09T14:42:52;13.52;;;7.13;;
21103;SDS011;10710;53.398;-1.514;2023-04-09T14:45:36;14.43;;;6.50;;
21103;SDS011;10710;53.398;-1.514;2023-04-09T14:48:20;12.50;;;6.57;;
21103;SDS011;10710;53.398;-1.514;2023-04-09T14:51:04;14.23;;;7.38;;
21103;SDS011;10710;53.398;-1.514;2023-04-09T14:53:49;12.80;;;6.65;;
21103;SDS011;10710;53.398;-1.514;2023-04-09T14:56:34;10.57;;;6.20;;
21103;SDS011;10710;53.398;-1.514;2023-04-09T14:59:18;14.48;;;7.00;;
21103;SDS011;10710;53.398;-1.514;2023-04-09T15:02:03;17.30;;;8.00;;
21103;SDS011;10710;53.398;-1.514;2023-04-09T15:04:47;14.98;;;7.50;;
21103;SDS011;10710;53.398;-1.514;2023-04-09T15:07:31;14.60;;;7.45;;
21103;SDS011;10710;53.398;-1.514;2023-04-09T15:10:16;16.08;;;7.57;;
21103;SDS011;10710;53.398;-1.514;2023-04-09T15:13:00;13.13;;;7.25;;
21103;SDS011;10710;53.398;-1.514;2023-04-09T15:15:45;16.17;;;6.82;;
21103;SDS011;10710;53.398;-1.514;2023-04-09T15:18:29;10.48;;;6.07;;
21103;SDS011;10710;53.398;-1.514;2023-04-09T15:21:13;9.40;;;6.18;;
21103;SDS011;10710;53.398;-1.514;2023-04-09T15:23:58;12.90;;;5.93;;
21103;SDS011;10710;53.398;-1.514;2023-04-09T15:26:42;14.02;;;6.88;;
21103;SDS011;10710;53.398;-1.514;2023-04-09T15:29:27;10.90;;;6.03;;
21103;SDS011;10710;53.398;-1.514;2023-04-09T15:32:11;13.10;;;5.90;;
21103;SDS011;10710;53.398;-1.514;2023-04-09T15:34:55;8.45;;;5.47;;
21103;SDS011;10710;53.398;-1.514;2023-04-09T15:37:39;9.67;;;5.70;;
21103;SDS011;10710;53.398;-1.514;2023-04-09T15:40:24;13.52;;;6.10;;
21103;SDS011;10710;53.398;-1.514;2023-04-09T15:43:08;12.90;;;7.38;;
21103;SDS011;10710;53.398;-1.514;2023-04-09T15:45:53;13.25;;;5.80;;
21103;SDS011;10710;53.398;-1.514;2023-04-09T15:48:37;12.18;;;6.00;;
21103;SDS011;10710;53.398;-1.514;2023-04-09T15:51:21;13.93;;;6.73;;
21103;SDS011;10710;53.398;-1.514;2023-04-09T15:54:05;11.48;;;5.82;;
21103;SDS011;10710;53.398;-1.514;2023-04-09T15:56:49;13.73;;;5.80;;
21103;SDS011;10710;53.398;-1.514;2023-04-09T15:59:34;11.77;;;6.72;;
21103;SDS011;10710;53.398;-1.514;2023-04-09T16:02:18;11.27;;;5.70;;
21103;SDS011;10710;53.398;-1.514;2023-04-09T16:05:04;15.10;;;7.82;;
21103;SDS011;10710;53.398;-1.514;2023-04-09T16:07:49;12.88;;;6.82;;
21103;SDS011;10710;53.398;-1.514;2023-04-09T16:10:34;11.38;;;5.57;;
21103;SDS011;10710;53.398;-1.514;2023-04-09T16:13:19;9.60;;;5.00;;
21103;SDS011;10710;53.398;-1.514;2023-04-09T16:16:03;9.32;;;5.30;;
21103;SDS011;10710;53.398;-1.514;2023-04-09T16:18:49;10.77;;;5.20;;
21103;SDS011;10710;53.398;-1.514;2023-04-09T16:21:33;9.63;;;5.20;;